sensor_id;sensor_type;location;lat;lon;timestamp;P1;durP1;ratioP1;P2;durP2;ratioP2
75739;SDS011;64357;51.344;6.550;2024-01-30T00:00:43;12.35;;;5.40;;
75739;SDS011;64357;51.344;6.550;2024-01-30T00:03:08;13.00;;;4.97;;
75739;SDS011;64357;51.344;6.550;2024-01-30T00:05:33;12.60;;;5.33;;
75739;SDS011;64357;51.344;6.550;2024-01-30T00:07:59;12.27;;;5.43;;
75739;SDS011;64357;51.344;6.550;2024-01-30T00:10:24;13.03;;;5.40;;
75739;SDS011;64357;51.344;6.550;2024-01-30T00:12:49;12.50;;;5.10;;
75739;SDS011;64357;51.344;6.550;2024-01-30T00:15:15;11.77;;;5.50;;
75739;SDS011;64357;51.344;6.550;2024-01-30T00:17:40;13.13;;;5.95;;
75739;SDS011;64357;51.344;6.550;2024-01-30T00:20:08;11.47;;;4.60;;
75739;SDS011;64357;51.344;6.550;2024-01-30T00:22:34;9.95;;;4.90;;
75739;SDS011;64357;51.344;6.550;2024-01-30T00:25:00;12.80;;;5.20;;
75739;SDS011;64357;51.344;6.550;2024-01-30T00:27:30;11.13;;;4.90;;
75739;SDS011;64357;51.344;6.550;2024-01-30T00:29:55;12.15;;;5.38;;
75739;SDS011;64357;51.344;6.550;2024-01-30T00:32:21;11.17;;;5.20;;
75739;SDS011;64357;51.344;6.550;2024-01-30T00:34:47;12.15;;;5.65;;
75739;SDS011;64357;51.344;6.550;2024-01-30T00:37:15;11.53;;;4.70;;
75739;SDS011;64357;51.344;6.550;2024-01-30T00:39:40;15.10;;;6.10;;
75739;SDS011;64357;51.344;6.550;2024-01-30T00:42:08;11.82;;;5.40;;
75739;SDS011;64357;51.344;6.550;2024-01-30T00:44:37;13.02;;;4.97;;
75739;SDS011;64357;51.344;6.550;2024-01-30T00:47:03;11.70;;;6.20;;
75739;SDS011;64357;51.344;6.550;2024-01-30T00:49:29;13.02;;;5.60;;
75739;SDS011;64357;51.344;6.550;2024-01-30T00:51:59;11.02;;;5.30;;
75739;SDS011;64357;51.344;6.550;2024-01-30T00:54:24;15.77;;;5.80;;
75739;SDS011;64357;51.344;6.550;2024-01-30T00:56:50;10.40;;;4.87;;
75739;SDS011;64357;51.344;6.550;2024-01-30T00:59:17;11.85;;;5.63;;
75739;SDS011;64357;51.344;6.550;2024-01-30T01:01:43;11.67;;;5.07;;
75739;SDS011;64357;51.344;6.550;2024-01-30T01:04:10;11.20;;;5.18;;
75739;SDS011;64357;51.344;6.550;2024-01-30T01:06:36;13.57;;;5.47;;
75739;SDS011;64357;51.344;6.550;2024-01-30T01:09:01;12.93;;;4.77;;
75739;SDS011;64357;51.344;6.550;2024-01-30T01:11:27;10.60;;;5.07;;
75739;SDS011;64357;51.344;6.550;2024-01-30T01:13:53;12.50;;;5.63;;
75739;SDS011;64357;51.344;6.550;2024-01-30T01:16:18;13.20;;;5.40;;
75739;SDS011;64357;51.344;6.550;2024-01-30T01:18:43;13.70;;;5.63;;
75739;SDS011;64357;51.344;6.550;2024-01-30T01:21:09;11.63;;;5.30;;
75739;SDS011;64357;51.344;6.550;2024-01-30T01:23:34;13.17;;;5.40;;
75739;SDS011;64357;51.344;6.550;2024-01-30T01:25:59;12.53;;;4.87;;
75739;SDS011;64357;51.344;6.550;2024-01-30T01:28:25;12.77;;;5.30;;
75739;SDS011;64357;51.344;6.550;2024-01-30T01:30:53;13.23;;;5.55;;
75739;SDS011;64357;51.344;6.550;2024-01-30T01:33:26;18.77;;;6.20;;
75739;SDS011;64357;51.344;6.550;2024-01-30T01:35:54;10.80;;;4.85;;
75739;SDS011;64357;51.344;6.550;2024-01-30T01:38:22;12.25;;;5.07;;
75739;SDS011;64357;51.344;6.550;2024-01-30T01:40:47;11.50;;;5.47;;
75739;SDS011;64357;51.344;6.550;2024-01-30T01:43:16;12.10;;;5.03;;
75739;SDS011;64357;51.344;6.550;2024-01-30T01:45:41;11.50;;;5.47;;
75739;SDS011;64357;51.344;6.550;2024-01-30T01:48:07;11.83;;;5.70;;
75739;SDS011;64357;51.344;6.550;2024-01-30T01:50:35;14.15;;;5.63;;
75739;SDS011;64357;51.344;6.550;2024-01-30T01:53:01;10.57;;;4.90;;
75739;SDS011;64357;51.344;6.550;2024-01-30T01:55:30;12.88;;;4.70;;
75739;SDS011;64357;51.344;6.550;2024-01-30T01:57:57;13.30;;;5.05;;
75739;SDS011;64357;51.344;6.550;2024-01-30T02:00:25;12.07;;;5.35;;
75739;SDS011;64357;51.344;6.550;2024-01-30T02:02:51;12.75;;;5.70;;
75739;SDS011;64357;51.344;6.550;2024-01-30T02:05:19;13.40;;;5.28;;
75739;SDS011;64357;51.344;6.550;2024-01-30T02:07:45;12.27;;;5.78;;
75739;SDS011;64357;51.344;6.550;2024-01-30T02:10:10;13.07;;;5.18;;
75739;SDS011;64357;51.344;6.550;2024-01-30T02:12:38;12.02;;;5.82;;
75739;SDS011;64357;51.344;6.550;2024-01-30T02:15:06;11.07;;;5.65;;
75739;SDS011;64357;51.344;6.550;2024-01-30T02:17:32;16.30;;;5.80;;
75739;SDS011;64357;51.344;6.550;2024-01-30T02:19:58;11.48;;;4.80;;
75739;SDS011;64357;51.344;6.550;2024-01-30T02:22:28;11.65;;;5.30;;
75739;SDS011;64357;51.344;6.550;2024-01-30T02:24:54;10.88;;;4.72;;
75739;SDS011;64357;51.344;6.550;2024-01-30T02:27:19;10.93;;;5.10;;
75739;SDS011;64357;51.344;6.550;2024-01-30T02:29:45;13.30;;;5.90;;
75739;SDS011;64357;51.344;6.550;2024-01-30T02:32:12;12.48;;;5.43;;
75739;SDS011;64357;51.344;6.550;2024-01-30T02:34:38;13.68;;;5.22;;
75739;SDS011;64357;51.344;6.550;2024-01-30T02:37:03;12.90;;;5.23;;
75739;SDS011;64357;51.344;6.550;2024-01-30T02:39:30;13.63;;;5.30;;
75739;SDS011;64357;51.344;6.550;2024-01-30T02:41:57;12.18;;;5.65;;
75739;SDS011;64357;51.344;6.550;2024-01-30T02:44:22;12.13;;;5.32;;
75739;SDS011;64357;51.344;6.550;2024-01-30T02:46:48;12.63;;;5.43;;
75739;SDS011;64357;51.344;6.550;2024-01-30T02:49:13;15.67;;;5.63;;
75739;SDS011;64357;51.344;6.550;2024-01-30T02:51:38;13.23;;;5.85;;
75739;SDS011;64357;51.344;6.550;2024-01-30T02:54:04;13.47;;;5.83;;
75739;SDS011;64357;51.344;6.550;2024-01-30T02:56:29;11.73;;;4.97;;
75739;SDS011;64357;51.344;6.550;2024-01-30T02:58:54;12.20;;;4.93;;
75739;SDS011;64357;51.344;6.550;2024-01-30T03:01:20;12.38;;;6.35;;
75739;SDS011;64357;51.344;6.550;2024-01-30T03:03:47;14.33;;;5.80;;
75739;SDS011;64357;51.344;6.550;2024-01-30T03:06:13;11.30;;;5.25;;
75739;SDS011;64357;51.344;6.550;2024-01-30T03:08:40;12.25;;;5.07;;
75739;SDS011;64357;51.344;6.550;2024-01-30T03:11:07;12.52;;;5.15;;
75739;SDS011;64357;51.344;6.550;2024-01-30T03:13:33;11.10;;;5.23;;
75739;SDS011;64357;51.344;6.550;2024-01-30T03:15:58;13.73;;;5.10;;
75739;SDS011;64357;51.344;6.550;2024-01-30T03:18:23;12.53;;;5.40;;
75739;SDS011;64357;51.344;6.550;2024-01-30T03:20:49;14.13;;;5.23;;
75739;SDS011;64357;51.344;6.550;2024-01-30T03:23:16;12.13;;;5.45;;
75739;SDS011;64357;51.344;6.550;2024-01-30T03:25:42;14.10;;;5.60;;
75739;SDS011;64357;51.344;6.550;2024-01-30T03:28:07;11.43;;;5.30;;
75739;SDS011;64357;51.344;6.550;2024-01-30T03:30:34;15.17;;;6.20;;
75739;SDS011;64357;51.344;6.550;2024-01-30T03:32:59;13.68;;;5.40;;
75739;SDS011;64357;51.344;6.550;2024-01-30T03:35:27;14.70;;;5.22;;
75739;SDS011;64357;51.344;6.550;2024-01-30T03:37:55;12.13;;;5.38;;
75739;SDS011;64357;51.344;6.550;2024-01-30T03:40:21;11.77;;;4.93;;
75739;SDS011;64357;51.344;6.550;2024-01-30T03:42:46;11.87;;;4.67;;
75739;SDS011;64357;51.344;6.550;2024-01-30T03:45:14;12.37;;;5.43;;
75739;SDS011;64357;51.344;6.550;2024-01-30T03:47:39;15.80;;;5.22;;
75739;SDS011;64357;51.344;6.550;2024-01-30T03:50:04;12.87;;;5.27;;
75739;SDS011;64357;51.344;6.550;2024-01-30T03:52:30;12.50;;;5.25;;
75739;SDS011;64357;51.344;6.550;2024-01-30T03:54:58;13.45;;;5.45;;
75739;SDS011;64357;51.344;6.550;2024-01-30T03:57:23;14.37;;;5.20;;
75739;SDS011;64357;51.344;6.550;2024-01-30T03:59:50;14.20;;;5.13;;
75739;SDS011;64357;51.344;6.550;2024-01-30T04:02:16;13.20;;;5.13;;
75739;SDS011;64357;51.344;6.550;2024-01-30T04:04:45;13.73;;;4.70;;
75739;SDS011;64357;51.344;6.550;2024-01-30T04:07:13;13.77;;;5.28;;
75739;SDS011;64357;51.344;6.550;2024-01-30T04:09:38;11.13;;;4.87;;
75739;SDS011;64357;51.344;6.550;2024-01-30T04:12:04;13.23;;;4.97;;
75739;SDS011;64357;51.344;6.550;2024-01-30T04:14:31;12.82;;;4.63;;
75739;SDS011;64357;51.344;6.550;2024-01-30T04:16:57;11.65;;;4.75;;
75739;SDS011;64357;51.344;6.550;2024-01-30T04:19:25;11.52;;;5.20;;
75739;SDS011;64357;51.344;6.550;2024-01-30T04:21:50;15.13;;;5.87;;
75739;SDS011;64357;51.344;6.550;2024-01-30T04:24:18;10.63;;;5.18;;
75739;SDS011;64357;51.344;6.550;2024-01-30T04:26:43;14.52;;;5.28;;
75739;SDS011;64357;51.344;6.550;2024-01-30T04:29:09;12.57;;;5.20;;
75739;SDS011;64357;51.344;6.550;2024-01-30T04:31:35;11.77;;;5.17;;
75739;SDS011;64357;51.344;6.550;2024-01-30T04:34:01;12.95;;;4.78;;
75739;SDS011;64357;51.344;6.550;2024-01-30T04:36:29;12.93;;;5.32;;
75739;SDS011;64357;51.344;6.550;2024-01-30T04:38:54;12.77;;;5.40;;
75739;SDS011;64357;51.344;6.550;2024-01-30T04:41:19;11.13;;;4.60;;
75739;SDS011;64357;51.344;6.550;2024-01-30T04:43:47;12.27;;;5.50;;
75739;SDS011;64357;51.344;6.550;2024-01-30T04:46:12;12.30;;;5.00;;
75739;SDS011;64357;51.344;6.550;2024-01-30T04:48:38;11.07;;;4.40;;
75739;SDS011;64357;51.344;6.550;2024-01-30T04:51:06;13.05;;;5.55;;
75739;SDS011;64357;51.344;6.550;2024-01-30T04:53:31;11.13;;;5.47;;
75739;SDS011;64357;51.344;6.550;2024-01-30T04:55:59;12.45;;;5.25;;
75739;SDS011;64357;51.344;6.550;2024-01-30T04:58:24;14.32;;;5.47;;
75739;SDS011;64357;51.344;6.550;2024-01-30T05:00:49;12.03;;;5.23;;
75739;SDS011;64357;51.344;6.550;2024-01-30T05:03:19;9.65;;;4.78;;
75739;SDS011;64357;51.344;6.550;2024-01-30T05:08:13;11.77;;;5.30;;
75739;SDS011;64357;51.344;6.550;2024-01-30T05:10:38;13.00;;;4.57;;
75739;SDS011;64357;51.344;6.550;2024-01-30T05:13:03;9.90;;;4.50;;
75739;SDS011;64357;51.344;6.550;2024-01-30T05:15:29;12.07;;;5.47;;
75739;SDS011;64357;51.344;6.550;2024-01-30T05:17:54;13.17;;;5.03;;
75739;SDS011;64357;51.344;6.550;2024-01-30T05:20:20;10.43;;;4.75;;
75739;SDS011;64357;51.344;6.550;2024-01-30T05:22:45;10.07;;;5.10;;
75739;SDS011;64357;51.344;6.550;2024-01-30T05:25:12;12.15;;;5.78;;
75739;SDS011;64357;51.344;6.550;2024-01-30T05:27:38;14.63;;;6.25;;
75739;SDS011;64357;51.344;6.550;2024-01-30T05:30:06;12.38;;;5.55;;
75739;SDS011;64357;51.344;6.550;2024-01-30T05:32:32;10.95;;;5.22;;
75739;SDS011;64357;51.344;6.550;2024-01-30T05:34:57;12.03;;;5.07;;
75739;SDS011;64357;51.344;6.550;2024-01-30T05:37:22;11.83;;;5.20;;
75739;SDS011;64357;51.344;6.550;2024-01-30T05:39:48;12.43;;;5.07;;
75739;SDS011;64357;51.344;6.550;2024-01-30T05:42:13;10.75;;;4.85;;
75739;SDS011;64357;51.344;6.550;2024-01-30T05:44:42;13.23;;;5.93;;
75739;SDS011;64357;51.344;6.550;2024-01-30T05:47:07;11.98;;;5.40;;
75739;SDS011;64357;51.344;6.550;2024-01-30T05:49:35;13.13;;;5.40;;
75739;SDS011;64357;51.344;6.550;2024-01-30T05:52:02;15.35;;;5.90;;
75739;SDS011;64357;51.344;6.550;2024-01-30T05:54:28;13.73;;;5.63;;
75739;SDS011;64357;51.344;6.550;2024-01-30T05:56:54;13.17;;;5.13;;
75739;SDS011;64357;51.344;6.550;2024-01-30T05:59:19;13.48;;;4.93;;
75739;SDS011;64357;51.344;6.550;2024-01-30T06:01:45;12.43;;;5.70;;
75739;SDS011;64357;51.344;6.550;2024-01-30T06:04:13;12.38;;;5.15;;
75739;SDS011;64357;51.344;6.550;2024-01-30T06:06:39;12.88;;;5.50;;
75739;SDS011;64357;51.344;6.550;2024-01-30T06:09:05;11.30;;;5.10;;
75739;SDS011;64357;51.344;6.550;2024-01-30T06:11:30;10.23;;;5.10;;
75739;SDS011;64357;51.344;6.550;2024-01-30T06:13:58;13.23;;;5.25;;
75739;SDS011;64357;51.344;6.550;2024-01-30T06:16:23;10.97;;;4.77;;
75739;SDS011;64357;51.344;6.550;2024-01-30T06:18:54;11.52;;;5.30;;
75739;SDS011;64357;51.344;6.550;2024-01-30T06:21:20;11.75;;;4.70;;
75739;SDS011;64357;51.344;6.550;2024-01-30T06:23:46;11.77;;;4.85;;
75739;SDS011;64357;51.344;6.550;2024-01-30T06:26:13;12.10;;;4.50;;
75739;SDS011;64357;51.344;6.550;2024-01-30T06:28:41;13.50;;;4.83;;
75739;SDS011;64357;51.344;6.550;2024-01-30T06:31:07;12.65;;;5.43;;
75739;SDS011;64357;51.344;6.550;2024-01-30T06:33:32;12.57;;;4.63;;
75739;SDS011;64357;51.344;6.550;2024-01-30T06:35:57;11.10;;;4.83;;
75739;SDS011;64357;51.344;6.550;2024-01-30T06:38:23;11.63;;;4.80;;
75739;SDS011;64357;51.344;6.550;2024-01-30T06:40:48;11.97;;;4.53;;
75739;SDS011;64357;51.344;6.550;2024-01-30T06:43:18;14.07;;;5.88;;
75739;SDS011;64357;51.344;6.550;2024-01-30T06:45:43;13.70;;;5.20;;
75739;SDS011;64357;51.344;6.550;2024-01-30T06:48:09;11.18;;;4.93;;
75739;SDS011;64357;51.344;6.550;2024-01-30T06:50:34;10.75;;;4.97;;
75739;SDS011;64357;51.344;6.550;2024-01-30T06:52:59;12.57;;;4.80;;
75739;SDS011;64357;51.344;6.550;2024-01-30T06:55:25;12.40;;;4.80;;
75739;SDS011;64357;51.344;6.550;2024-01-30T06:57:51;11.48;;;4.88;;
75739;SDS011;64357;51.344;6.550;2024-01-30T07:00:16;23.37;;;6.47;;
75739;SDS011;64357;51.344;6.550;2024-01-30T07:02:47;13.23;;;5.32;;
75739;SDS011;64357;51.344;6.550;2024-01-30T07:05:12;11.20;;;5.53;;
75739;SDS011;64357;51.344;6.550;2024-01-30T07:07:40;9.27;;;4.47;;
75739;SDS011;64357;51.344;6.550;2024-01-30T07:10:06;12.57;;;5.57;;
75739;SDS011;64357;51.344;6.550;2024-01-30T07:12:31;13.52;;;5.28;;
75739;SDS011;64357;51.344;6.550;2024-01-30T07:14:59;11.10;;;5.43;;
75739;SDS011;64357;51.344;6.550;2024-01-30T07:17:24;10.65;;;4.53;;
75739;SDS011;64357;51.344;6.550;2024-01-30T07:19:50;12.40;;;5.72;;
75739;SDS011;64357;51.344;6.550;2024-01-30T07:22:15;12.02;;;4.55;;
75739;SDS011;64357;51.344;6.550;2024-01-30T07:24:44;11.10;;;5.27;;
75739;SDS011;64357;51.344;6.550;2024-01-30T07:27:10;11.13;;;5.15;;
75739;SDS011;64357;51.344;6.550;2024-01-30T07:29:35;12.37;;;4.67;;
75739;SDS011;64357;51.344;6.550;2024-01-30T07:32:01;12.23;;;4.90;;
75739;SDS011;64357;51.344;6.550;2024-01-30T07:34:32;9.90;;;4.55;;
75739;SDS011;64357;51.344;6.550;2024-01-30T07:36:57;11.73;;;4.77;;
75739;SDS011;64357;51.344;6.550;2024-01-30T07:39:23;12.37;;;4.67;;
75739;SDS011;64357;51.344;6.550;2024-01-30T07:41:48;11.53;;;4.97;;
75739;SDS011;64357;51.344;6.550;2024-01-30T07:44:13;11.67;;;4.60;;
75739;SDS011;64357;51.344;6.550;2024-01-30T07:46:39;11.02;;;4.78;;
75739;SDS011;64357;51.344;6.550;2024-01-30T07:49:07;11.57;;;4.60;;
75739;SDS011;64357;51.344;6.550;2024-01-30T07:51:32;10.38;;;4.53;;
75739;SDS011;64357;51.344;6.550;2024-01-30T07:53:58;8.98;;;4.07;;
75739;SDS011;64357;51.344;6.550;2024-01-30T07:56:23;9.95;;;4.53;;
75739;SDS011;64357;51.344;6.550;2024-01-30T07:58:52;10.68;;;4.88;;
75739;SDS011;64357;51.344;6.550;2024-01-30T08:01:18;14.07;;;5.60;;
75739;SDS011;64357;51.344;6.550;2024-01-30T08:03:43;12.20;;;5.00;;
75739;SDS011;64357;51.344;6.550;2024-01-30T08:06:09;10.73;;;5.10;;
75739;SDS011;64357;51.344;6.550;2024-01-30T08:08:34;12.18;;;5.18;;
75739;SDS011;64357;51.344;6.550;2024-01-30T08:11:00;16.13;;;5.13;;
75739;SDS011;64357;51.344;6.550;2024-01-30T08:13:25;11.57;;;4.87;;
75739;SDS011;64357;51.344;6.550;2024-01-30T08:15:51;10.07;;;4.60;;
75739;SDS011;64357;51.344;6.550;2024-01-30T08:18:16;10.07;;;4.03;;
75739;SDS011;64357;51.344;6.550;2024-01-30T08:20:44;10.48;;;4.65;;
75739;SDS011;64357;51.344;6.550;2024-01-30T08:23:14;11.18;;;4.80;;
75739;SDS011;64357;51.344;6.550;2024-01-30T08:25:39;12.13;;;4.97;;
75739;SDS011;64357;51.344;6.550;2024-01-30T08:28:05;11.50;;;4.43;;
75739;SDS011;64357;51.344;6.550;2024-01-30T08:30:33;11.60;;;5.30;;
75739;SDS011;64357;51.344;6.550;2024-01-30T08:32:58;11.55;;;4.78;;
75739;SDS011;64357;51.344;6.550;2024-01-30T08:35:26;10.97;;;4.70;;
75739;SDS011;64357;51.344;6.550;2024-01-30T08:37:51;9.23;;;4.47;;
75739;SDS011;64357;51.344;6.550;2024-01-30T08:40:17;10.93;;;4.90;;
75739;SDS011;64357;51.344;6.550;2024-01-30T08:42:42;12.73;;;5.10;;
75739;SDS011;64357;51.344;6.550;2024-01-30T08:45:12;12.23;;;4.75;;
75739;SDS011;64357;51.344;6.550;2024-01-30T08:47:37;11.73;;;4.67;;
75739;SDS011;64357;51.344;6.550;2024-01-30T08:50:05;13.70;;;4.43;;
75739;SDS011;64357;51.344;6.550;2024-01-30T08:52:31;12.50;;;5.25;;
75739;SDS011;64357;51.344;6.550;2024-01-30T08:55:02;12.40;;;6.70;;
75739;SDS011;64357;51.344;6.550;2024-01-30T08:57:28;12.70;;;4.65;;
75739;SDS011;64357;51.344;6.550;2024-01-30T08:59:54;12.32;;;4.25;;
75739;SDS011;64357;51.344;6.550;2024-01-30T09:05:11;11.27;;;5.03;;
75739;SDS011;64357;51.344;6.550;2024-01-30T09:17:53;11.77;;;5.00;;
75739;SDS011;64357;51.344;6.550;2024-01-30T09:20:19;11.52;;;5.28;;
75739;SDS011;64357;51.344;6.550;2024-01-30T09:22:48;14.95;;;5.53;;
75739;SDS011;64357;51.344;6.550;2024-01-30T09:25:14;11.27;;;4.95;;
75739;SDS011;64357;51.344;6.550;2024-01-30T09:27:44;13.73;;;6.15;;
75739;SDS011;64357;51.344;6.550;2024-01-30T09:30:34;9.43;;;4.30;;
75739;SDS011;64357;51.344;6.550;2024-01-30T09:33:03;11.93;;;5.80;;
75739;SDS011;64357;51.344;6.550;2024-01-30T09:35:36;13.35;;;5.82;;
75739;SDS011;64357;51.344;6.550;2024-01-30T09:38:02;11.48;;;5.82;;
75739;SDS011;64357;51.344;6.550;2024-01-30T09:40:28;11.65;;;5.25;;
75739;SDS011;64357;51.344;6.550;2024-01-30T09:42:56;12.85;;;5.30;;
75739;SDS011;64357;51.344;6.550;2024-01-30T09:45:24;13.65;;;5.35;;
75739;SDS011;64357;51.344;6.550;2024-01-30T09:47:51;12.45;;;5.70;;
75739;SDS011;64357;51.344;6.550;2024-01-30T09:50:19;10.48;;;5.28;;
75739;SDS011;64357;51.344;6.550;2024-01-30T09:52:46;11.75;;;5.15;;
75739;SDS011;64357;51.344;6.550;2024-01-30T09:55:15;12.25;;;4.95;;
75739;SDS011;64357;51.344;6.550;2024-01-30T09:57:41;12.55;;;4.85;;
75739;SDS011;64357;51.344;6.550;2024-01-30T10:00:15;12.13;;;5.78;;
75739;SDS011;64357;51.344;6.550;2024-01-30T10:03:10;12.75;;;5.18;;
75739;SDS011;64357;51.344;6.550;2024-01-30T10:06:14;16.17;;;5.40;;
75739;SDS011;64357;51.344;6.550;2024-01-30T10:14:27;11.82;;;5.70;;
75739;SDS011;64357;51.344;6.550;2024-01-30T10:16:53;13.43;;;5.17;;
75739;SDS011;64357;51.344;6.550;2024-01-30T10:19:18;11.83;;;5.07;;
75739;SDS011;64357;51.344;6.550;2024-01-30T10:21:46;11.13;;;5.32;;
75739;SDS011;64357;51.344;6.550;2024-01-30T10:24:14;11.73;;;5.22;;
75739;SDS011;64357;51.344;6.550;2024-01-30T10:26:43;14.35;;;5.25;;
75739;SDS011;64357;51.344;6.550;2024-01-30T10:29:12;13.98;;;5.05;;
75739;SDS011;64357;51.344;6.550;2024-01-30T10:31:37;13.97;;;6.20;;
75739;SDS011;64357;51.344;6.550;2024-01-30T10:34:02;12.63;;;5.35;;
75739;SDS011;64357;51.344;6.550;2024-01-30T10:36:28;10.80;;;5.07;;
75739;SDS011;64357;51.344;6.550;2024-01-30T10:38:58;11.63;;;5.75;;
75739;SDS011;64357;51.344;6.550;2024-01-30T10:41:27;13.45;;;5.47;;
75739;SDS011;64357;51.344;6.550;2024-01-30T10:43:58;13.50;;;5.53;;
75739;SDS011;64357;51.344;6.550;2024-01-30T10:46:33;12.38;;;5.15;;
75739;SDS011;64357;51.344;6.550;2024-01-30T10:49:05;16.90;;;6.00;;
75739;SDS011;64357;51.344;6.550;2024-01-30T10:51:32;11.88;;;5.10;;
75739;SDS011;64357;51.344;6.550;2024-01-30T10:53:59;12.55;;;5.70;;
75739;SDS011;64357;51.344;6.550;2024-01-30T10:56:28;12.43;;;5.20;;
75739;SDS011;64357;51.344;6.550;2024-01-30T10:58:56;13.60;;;5.25;;
75739;SDS011;64357;51.344;6.550;2024-01-30T11:01:24;12.10;;;5.10;;
75739;SDS011;64357;51.344;6.550;2024-01-30T11:03:53;13.23;;;5.38;;
75739;SDS011;64357;51.344;6.550;2024-01-30T11:06:21;13.68;;;5.68;;
75739;SDS011;64357;51.344;6.550;2024-01-30T11:08:59;14.40;;;5.88;;
75739;SDS011;64357;51.344;6.550;2024-01-30T11:11:29;12.30;;;5.47;;
75739;SDS011;64357;51.344;6.550;2024-01-30T11:14:00;12.77;;;6.05;;
75739;SDS011;64357;51.344;6.550;2024-01-30T11:16:30;13.25;;;5.50;;
75739;SDS011;64357;51.344;6.550;2024-01-30T11:19:00;13.40;;;5.80;;
75739;SDS011;64357;51.344;6.550;2024-01-30T11:21:25;11.35;;;5.47;;
75739;SDS011;64357;51.344;6.550;2024-01-30T11:23:51;14.23;;;6.23;;
75739;SDS011;64357;51.344;6.550;2024-01-30T11:26:23;15.75;;;6.43;;
75739;SDS011;64357;51.344;6.550;2024-01-30T11:28:52;12.18;;;5.20;;
75739;SDS011;64357;51.344;6.550;2024-01-30T11:31:18;12.25;;;5.05;;
75739;SDS011;64357;51.344;6.550;2024-01-30T11:33:49;14.68;;;5.82;;
75739;SDS011;64357;51.344;6.550;2024-01-30T11:36:21;14.32;;;5.32;;
75739;SDS011;64357;51.344;6.550;2024-01-30T11:38:50;13.27;;;5.07;;
75739;SDS011;64357;51.344;6.550;2024-01-30T11:41:19;10.68;;;4.97;;
75739;SDS011;64357;51.344;6.550;2024-01-30T11:43:51;14.15;;;5.30;;
75739;SDS011;64357;51.344;6.550;2024-01-30T11:46:22;11.48;;;4.75;;
75739;SDS011;64357;51.344;6.550;2024-01-30T11:48:50;15.23;;;5.35;;
75739;SDS011;64357;51.344;6.550;2024-01-30T11:51:16;13.63;;;5.13;;
75739;SDS011;64357;51.344;6.550;2024-01-30T11:53:49;12.40;;;5.70;;
75739;SDS011;64357;51.344;6.550;2024-01-30T11:56:14;12.80;;;5.82;;
75739;SDS011;64357;51.344;6.550;2024-01-30T11:58:45;14.05;;;5.88;;
75739;SDS011;64357;51.344;6.550;2024-01-30T12:01:11;14.15;;;5.47;;
75739;SDS011;64357;51.344;6.550;2024-01-30T12:03:36;14.85;;;5.60;;
75739;SDS011;64357;51.344;6.550;2024-01-30T12:06:04;13.70;;;5.22;;
75739;SDS011;64357;51.344;6.550;2024-01-30T12:08:30;15.40;;;6.35;;
75739;SDS011;64357;51.344;6.550;2024-01-30T12:10:56;18.40;;;6.07;;
75739;SDS011;64357;51.344;6.550;2024-01-30T12:13:23;15.18;;;5.20;;
75739;SDS011;64357;51.344;6.550;2024-01-30T12:15:48;13.48;;;5.07;;
75739;SDS011;64357;51.344;6.550;2024-01-30T12:18:14;10.23;;;4.63;;
75739;SDS011;64357;51.344;6.550;2024-01-30T12:20:47;11.07;;;4.05;;
75739;SDS011;64357;51.344;6.550;2024-01-30T12:23:22;11.02;;;3.97;;
75739;SDS011;64357;51.344;6.550;2024-01-30T12:25:50;10.93;;;4.03;;
75739;SDS011;64357;51.344;6.550;2024-01-30T12:39:24;10.75;;;4.45;;
75739;SDS011;64357;51.344;6.550;2024-01-30T12:41:50;12.00;;;4.38;;
75739;SDS011;64357;51.344;6.550;2024-01-30T12:44:19;13.00;;;4.38;;
75739;SDS011;64357;51.344;6.550;2024-01-30T12:47:02;8.15;;;3.08;;
75739;SDS011;64357;51.344;6.550;2024-01-30T12:49:28;10.02;;;4.47;;
75739;SDS011;64357;51.344;6.550;2024-01-30T12:51:53;9.93;;;3.47;;
75739;SDS011;64357;51.344;6.550;2024-01-30T12:54:22;9.85;;;3.90;;
75739;SDS011;64357;51.344;6.550;2024-01-30T12:56:48;10.82;;;4.47;;
75739;SDS011;64357;51.344;6.550;2024-01-30T12:59:13;12.18;;;4.63;;
75739;SDS011;64357;51.344;6.550;2024-01-30T13:01:39;13.20;;;4.13;;
75739;SDS011;64357;51.344;6.550;2024-01-30T13:04:04;9.95;;;4.13;;
75739;SDS011;64357;51.344;6.550;2024-01-30T13:06:29;10.13;;;4.47;;
75739;SDS011;64357;51.344;6.550;2024-01-30T13:08:55;10.50;;;4.93;;
75739;SDS011;64357;51.344;6.550;2024-01-30T13:11:20;10.95;;;4.28;;
75739;SDS011;64357;51.344;6.550;2024-01-30T13:13:46;11.87;;;4.07;;
75739;SDS011;64357;51.344;6.550;2024-01-30T13:16:11;11.25;;;3.90;;
75739;SDS011;64357;51.344;6.550;2024-01-30T13:18:37;12.52;;;3.95;;
75739;SDS011;64357;51.344;6.550;2024-01-30T13:21:02;15.17;;;4.90;;
75739;SDS011;64357;51.344;6.550;2024-01-30T13:23:27;11.25;;;4.28;;
75739;SDS011;64357;51.344;6.550;2024-01-30T13:25:54;13.05;;;5.00;;
75739;SDS011;64357;51.344;6.550;2024-01-30T13:28:23;9.68;;;4.50;;
75739;SDS011;64357;51.344;6.550;2024-01-30T13:30:51;11.82;;;4.05;;
75739;SDS011;64357;51.344;6.550;2024-01-30T13:33:17;18.92;;;6.55;;
75739;SDS011;64357;51.344;6.550;2024-01-30T13:35:42;12.65;;;4.03;;
75739;SDS011;64357;51.344;6.550;2024-01-30T13:38:08;15.38;;;4.88;;
75739;SDS011;64357;51.344;6.550;2024-01-30T13:40:36;12.40;;;4.68;;
75739;SDS011;64357;51.344;6.550;2024-01-30T13:43:04;9.68;;;3.95;;
75739;SDS011;64357;51.344;6.550;2024-01-30T13:45:30;13.33;;;4.77;;
75739;SDS011;64357;51.344;6.550;2024-01-30T13:48:00;13.48;;;4.55;;
75739;SDS011;64357;51.344;6.550;2024-01-30T13:50:26;10.25;;;4.00;;
75739;SDS011;64357;51.344;6.550;2024-01-30T13:52:54;9.27;;;3.47;;
75739;SDS011;64357;51.344;6.550;2024-01-30T13:55:20;12.32;;;4.82;;
75739;SDS011;64357;51.344;6.550;2024-01-30T13:57:48;6.30;;;2.88;;
75739;SDS011;64357;51.344;6.550;2024-01-30T14:00:14;9.77;;;4.73;;
75739;SDS011;64357;51.344;6.550;2024-01-30T14:02:41;13.20;;;3.47;;
75739;SDS011;64357;51.344;6.550;2024-01-30T14:05:06;13.77;;;3.95;;
75739;SDS011;64357;51.344;6.550;2024-01-30T14:07:32;11.88;;;4.28;;
75739;SDS011;64357;51.344;6.550;2024-01-30T14:10:00;12.63;;;3.90;;
75739;SDS011;64357;51.344;6.550;2024-01-30T14:12:28;9.68;;;3.33;;
75739;SDS011;64357;51.344;6.550;2024-01-30T14:14:55;9.50;;;4.22;;
75739;SDS011;64357;51.344;6.550;2024-01-30T14:17:23;8.75;;;4.18;;
75739;SDS011;64357;51.344;6.550;2024-01-30T14:19:48;9.40;;;3.90;;
75739;SDS011;64357;51.344;6.550;2024-01-30T14:22:18;11.43;;;3.13;;
75739;SDS011;64357;51.344;6.550;2024-01-30T14:24:43;8.05;;;2.95;;
75739;SDS011;64357;51.344;6.550;2024-01-30T14:27:12;7.45;;;3.00;;
75739;SDS011;64357;51.344;6.550;2024-01-30T14:29:37;7.50;;;3.42;;
75739;SDS011;64357;51.344;6.550;2024-01-30T14:32:03;10.70;;;4.03;;
75739;SDS011;64357;51.344;6.550;2024-01-30T14:34:29;25.92;;;4.00;;
75739;SDS011;64357;51.344;6.550;2024-01-30T14:36:57;7.90;;;2.38;;
75739;SDS011;64357;51.344;6.550;2024-01-30T14:39:22;8.68;;;3.55;;
75739;SDS011;64357;51.344;6.550;2024-01-30T14:41:48;8.27;;;3.30;;
75739;SDS011;64357;51.344;6.550;2024-01-30T14:44:14;9.77;;;3.10;;
75739;SDS011;64357;51.344;6.550;2024-01-30T14:46:45;10.38;;;3.03;;
75739;SDS011;64357;51.344;6.550;2024-01-30T14:49:11;10.88;;;3.78;;
75739;SDS011;64357;51.344;6.550;2024-01-30T14:51:36;8.98;;;3.05;;
75739;SDS011;64357;51.344;6.550;2024-01-30T14:54:02;5.18;;;2.13;;
75739;SDS011;64357;51.344;6.550;2024-01-30T14:56:29;5.32;;;2.33;;
75739;SDS011;64357;51.344;6.550;2024-01-30T14:58:56;4.78;;;1.85;;
75739;SDS011;64357;51.344;6.550;2024-01-30T15:01:27;4.00;;;1.80;;
75739;SDS011;64357;51.344;6.550;2024-01-30T15:03:53;8.50;;;2.72;;
75739;SDS011;64357;51.344;6.550;2024-01-30T15:06:20;4.75;;;1.80;;